Terminal Aerodrome Forecast
Issued by NWS

Home | Current Version | Previous Version | Text Only | Print | Product List | Glossary On
Versions: 1 2 3 4 5 6 7 8 9 10 11 12 13 14 15 16 17 18
522
FTUS46 KMFR 141143
TAFOTH
TAF
KOTH 141143Z 1412/1512 21011G17KT 5SM -RA BR BKN009 OVC020
     FM150600 18005KT P6SM BKN004 OVC008=

USA.gov is the U.S. government's official web portal to all federal, state and local government web resources and services.